createdAt,value
2022-12-03T00:01:07.671Z,36.10
2022-12-03T00:03:09.714Z,42.20
2022-12-03T00:05:11.497Z,38.92
2022-12-03T00:07:12.932Z,42.65
2022-12-03T00:09:14.409Z,41.50
2022-12-03T00:11:15.883Z,39.83
2022-12-03T00:13:17.318Z,34.90
2022-12-03T00:15:18.821Z,40.72
2022-12-03T00:17:20.244Z,36.67
2022-12-03T00:19:21.694Z,37.30
2022-12-03T00:21:24.811Z,38.92
2022-12-03T00:23:26.634Z,38.40
2022-12-03T00:25:28.315Z,36.20
2022-12-03T00:27:29.766Z,38.10
2022-12-03T00:29:32.805Z,38.10
2022-12-03T00:31:34.351Z,37.22
2022-12-03T00:33:35.915Z,38.42
2022-12-03T00:35:37.464Z,37.72
2022-12-03T00:37:39.105Z,50.38
2022-12-03T00:39:40.585Z,39.05
2022-12-03T00:41:42.119Z,38.88
2022-12-03T00:43:43.878Z,39.75
2022-12-03T00:45:45.431Z,36.00
2022-12-03T00:47:46.876Z,36.70
2022-12-03T00:49:48.478Z,35.85
2022-12-03T00:51:50.161Z,38.40
2022-12-03T00:53:51.722Z,37.30
2022-12-03T00:55:53.200Z,39.53
2022-12-03T00:57:54.695Z,68.85
2022-12-03T00:59:56.158Z,47.25
2022-12-03T01:01:57.734Z,43.72
2022-12-03T01:03:59.212Z,41.53
2022-12-03T01:06:00.690Z,39.42
2022-12-03T01:08:02.280Z,36.38
2022-12-03T01:10:05.395Z,38.88
2022-12-03T01:12:06.956Z,40.42
2022-12-03T01:14:11.802Z,37.65
2022-12-03T01:16:13.366Z,40.90
2022-12-03T01:18:14.944Z,37.20
2022-12-03T01:20:16.670Z,39.03
2022-12-03T01:22:18.709Z,37.95
2022-12-03T01:24:20.389Z,37.92
2022-12-03T01:26:21.939Z,40.05
2022-12-03T01:28:23.369Z,40.95
2022-12-03T01:30:24.910Z,35.45
2022-12-03T01:32:26.507Z,37.03
2022-12-03T01:34:28.046Z,40.38
2022-12-03T01:36:29.548Z,39.13
2022-12-03T01:38:31.010Z,40.25
2022-12-03T01:40:32.615Z,40.78
2022-12-03T01:42:36.685Z,40.15
2022-12-03T01:44:40.056Z,40.55
2022-12-03T01:46:41.899Z,44.53
2022-12-03T01:48:44.089Z,42.10
2022-12-03T01:50:46.002Z,45.28
2022-12-03T01:52:47.562Z,43.65
2022-12-03T01:54:56.013Z,41.42
2022-12-03T01:56:58.249Z,41.30
2022-12-03T01:58:59.683Z,41.45
2022-12-03T02:01:06.421Z,41.35
2022-12-03T02:03:12.462Z,40.40
2022-12-03T02:05:19.648Z,40.05
2022-12-03T02:07:29.916Z,40.22
2022-12-03T02:09:31.409Z,40.20
2022-12-03T02:11:37.141Z,39.92
2022-12-03T02:13:38.803Z,39.92
2022-12-03T02:15:40.638Z,39.78
2022-12-03T02:17:42.645Z,42.13
2022-12-03T02:19:44.310Z,40.05
2022-12-03T02:22:05.700Z,44.47
2022-12-03T02:24:37.392Z,43.28
2022-12-03T02:26:38.965Z,52.63
2022-12-03T02:28:40.503Z,41.92
2022-12-03T02:30:42.029Z,40.83
2022-12-03T02:32:43.864Z,42.08
2022-12-03T02:34:46.319Z,42.50
2022-12-03T02:36:47.744Z,45.65
2022-12-03T02:38:49.793Z,39.95
2022-12-03T02:40:54.951Z,40.40
2022-12-03T02:42:59.779Z,40.92
2022-12-03T02:45:22.161Z,41.20
2022-12-03T02:47:23.816Z,42.03
2022-12-03T02:49:25.391Z,39.67
2022-12-03T02:51:26.938Z,40.33
2022-12-03T02:53:32.883Z,38.53
2022-12-03T02:55:37.417Z,41.38
2022-12-03T02:57:39.859Z,38.38
2022-12-03T02:59:42.154Z,39.40
2022-12-03T03:01:44.044Z,39.75
2022-12-03T03:03:48.048Z,39.63
2022-12-03T03:05:50.647Z,40.10
2022-12-03T03:07:52.284Z,39.88
2022-12-03T03:09:53.944Z,39.60
2022-12-03T03:11:55.502Z,41.28
2022-12-03T03:13:57.037Z,41.10
2022-12-03T03:15:58.966Z,40.35
2022-12-03T03:18:00.519Z,42.45
2022-12-03T03:20:03.590Z,41.00
2022-12-03T03:22:05.287Z,42.42
2022-12-03T03:24:07.101Z,41.17
2022-12-03T03:26:11.646Z,41.00
2022-12-03T03:28:14.568Z,40.35
2022-12-03T03:30:16.280Z,39.63
2022-12-03T03:32:17.908Z,41.55
2022-12-03T03:34:19.503Z,41.97
2022-12-03T03:36:21.327Z,41.78
2022-12-03T03:38:24.143Z,42.53
2022-12-03T03:40:27.021Z,39.10
2022-12-03T03:42:28.866Z,37.80
2022-12-03T03:44:30.514Z,40.83
2022-12-03T03:46:33.590Z,40.63
2022-12-03T03:48:35.529Z,40.35
2022-12-03T03:50:37.166Z,39.90
2022-12-03T03:52:40.192Z,40.95
2022-12-03T03:54:41.839Z,43.88
2022-12-03T03:56:43.394Z,40.47
2022-12-03T03:58:45.212Z,40.47
2022-12-03T04:00:47.009Z,42.22
2022-12-03T04:02:48.528Z,42.38
2022-12-03T04:04:51.793Z,40.83
2022-12-03T04:06:53.527Z,41.72
2022-12-03T04:08:55.029Z,47.88
2022-12-03T04:11:15.214Z,56.20
2022-12-03T04:13:16.680Z,44.97
2022-12-03T04:15:18.129Z,45.85
2022-12-03T04:17:19.624Z,45.10
2022-12-03T04:19:21.062Z,46.30
2022-12-03T04:21:42.508Z,46.58
2022-12-03T04:23:44.012Z,45.40
2022-12-03T04:26:03.949Z,44.40
2022-12-03T04:28:24.061Z,47.50
2022-12-03T04:30:25.613Z,44.88
2022-12-03T04:32:45.641Z,45.63
2022-12-03T04:35:05.839Z,47.38
2022-12-03T04:37:07.616Z,41.65
2022-12-03T04:39:09.073Z,41.47
2022-12-03T04:41:10.524Z,47.92
2022-12-03T04:43:13.051Z,46.72
2022-12-03T04:45:14.686Z,45.95
2022-12-03T04:47:34.183Z,48.25
2022-12-03T04:49:43.770Z,47.53
2022-12-03T04:51:45.247Z,47.10
2022-12-03T04:53:46.681Z,47.42
2022-12-03T04:55:48.174Z,52.00
2022-12-03T04:57:49.616Z,52.60
2022-12-03T04:59:51.148Z,53.60
2022-12-03T05:01:52.767Z,56.25
2022-12-03T05:03:54.435Z,51.08
2022-12-03T05:05:55.980Z,52.85
2022-12-03T05:07:57.540Z,52.33
2022-12-03T05:09:58.997Z,53.67
2022-12-03T05:12:00.574Z,53.67
2022-12-03T05:14:02.293Z,52.90
2022-12-03T05:16:04.205Z,54.38
2022-12-03T05:18:05.739Z,56.33
2022-12-03T05:20:28.066Z,52.13
2022-12-03T05:22:29.529Z,52.13
2022-12-03T05:24:30.984Z,56.33
2022-12-03T05:26:32.586Z,56.50
2022-12-03T05:28:34.085Z,56.25
2022-12-03T05:30:35.863Z,54.50
2022-12-03T05:32:38.478Z,52.95
2022-12-03T05:34:39.911Z,53.35
2022-12-03T05:36:41.463Z,58.83
2022-12-03T05:38:42.948Z,57.55
2022-12-03T05:40:44.819Z,57.13
2022-12-03T05:42:56.886Z,53.13
2022-12-03T05:44:58.342Z,54.05
2022-12-03T05:46:59.800Z,95.70
2022-12-03T05:49:01.325Z,61.00
2022-12-03T05:51:02.814Z,49.63
2022-12-03T05:53:04.391Z,52.65
2022-12-03T05:55:07.120Z,47.67
2022-12-03T05:57:08.629Z,53.03
2022-12-03T05:59:10.094Z,53.80
2022-12-03T06:01:11.573Z,55.55
2022-12-03T06:03:13.138Z,59.22
2022-12-03T06:05:15.549Z,62.40
2022-12-03T06:07:17.025Z,58.80
2022-12-03T06:09:18.504Z,63.67
2022-12-03T06:11:19.966Z,67.40
2022-12-03T06:13:21.502Z,69.25
2022-12-03T06:15:23.390Z,74.55
2022-12-03T06:17:24.874Z,65.55
2022-12-03T06:19:26.356Z,61.63
2022-12-03T06:21:27.818Z,66.57
2022-12-03T06:23:29.398Z,64.90
2022-12-03T06:25:30.912Z,63.15
2022-12-03T06:27:32.365Z,61.78
2022-12-03T06:29:34.033Z,71.72
2022-12-03T06:31:36.065Z,66.47
2022-12-03T06:33:37.581Z,62.83
2022-12-03T06:35:39.042Z,62.80
2022-12-03T06:37:40.515Z,55.60
2022-12-03T06:39:42.782Z,63.67
2022-12-03T06:41:44.315Z,68.18
2022-12-03T06:43:45.807Z,61.55
2022-12-03T06:45:48.035Z,61.47
2022-12-03T06:47:49.618Z,65.10
2022-12-03T06:49:51.160Z,67.45
2022-12-03T06:51:52.717Z,63.88
2022-12-03T06:53:54.188Z,48.45
2022-12-03T06:55:55.630Z,55.38
2022-12-03T06:57:57.175Z,57.53
2022-12-03T06:59:59.003Z,59.47
2022-12-03T07:02:01.155Z,68.07
2022-12-03T07:04:02.707Z,58.47
2022-12-03T07:06:04.206Z,61.78
2022-12-03T07:08:06.005Z,61.08
2022-12-03T07:10:08.321Z,63.55
2022-12-03T07:12:10.131Z,81.13
2022-12-03T07:14:11.756Z,52.50
2022-12-03T07:16:13.300Z,55.63
2022-12-03T07:18:14.788Z,59.25
2022-12-03T07:20:16.361Z,61.60
2022-12-03T07:22:17.847Z,56.45
2022-12-03T07:24:19.333Z,44.33
2022-12-03T07:26:21.072Z,44.15
2022-12-03T07:28:22.527Z,52.40
2022-12-03T07:30:25.613Z,44.92
2022-12-03T07:32:27.030Z,46.50
2022-12-03T07:34:28.556Z,44.88
2022-12-03T07:36:30.070Z,63.35
2022-12-03T07:38:31.693Z,173.82
2022-12-03T07:40:33.147Z,103.43
2022-12-03T07:42:34.587Z,79.50
2022-12-03T07:44:36.173Z,45.50
2022-12-03T07:46:37.665Z,56.58
2022-12-03T07:48:39.231Z,49.78
2022-12-03T07:50:40.681Z,49.92
2022-12-03T07:52:42.387Z,42.63
2022-12-03T07:54:44.018Z,39.20
2022-12-03T07:56:45.457Z,39.60
2022-12-03T07:58:46.937Z,43.95
2022-12-03T08:00:48.412Z,41.45
2022-12-03T08:02:49.964Z,36.35
2022-12-03T08:04:51.747Z,41.45
2022-12-03T08:06:53.533Z,37.83
2022-12-03T08:08:55.018Z,50.72
2022-12-03T08:10:56.513Z,44.80
2022-12-03T08:12:59.626Z,57.75
2022-12-03T08:15:01.762Z,44.95
2022-12-03T08:17:10.848Z,41.53
2022-12-03T08:19:14.726Z,31.70
2022-12-03T08:21:19.217Z,30.73
2022-12-03T08:23:23.931Z,40.78
2022-12-03T08:25:30.827Z,44.22
2022-12-03T08:27:34.936Z,39.30
2022-12-03T08:29:36.376Z,52.85
2022-12-03T08:31:38.746Z,48.45
2022-12-03T08:33:41.817Z,40.45
2022-12-03T08:35:49.910Z,41.08
2022-12-03T08:38:43.988Z,45.53
2022-12-03T08:40:48.389Z,83.45
2022-12-03T08:45:35.257Z,43.35
2022-12-03T08:47:40.437Z,45.80
2022-12-03T08:52:21.823Z,44.67
2022-12-03T08:54:25.945Z,46.75
2022-12-03T08:59:25.742Z,51.47
2022-12-03T09:01:44.528Z,41.92
2022-12-03T09:03:52.558Z,36.45
2022-12-03T09:05:54.181Z,47.53
2022-12-03T09:07:55.903Z,41.78
2022-12-03T09:09:57.496Z,43.17
2022-12-03T09:11:59.150Z,39.80
2022-12-03T09:14:00.603Z,40.03
2022-12-03T09:16:02.158Z,62.20
2022-12-03T09:18:03.773Z,70.90
2022-12-03T09:20:07.051Z,59.00
2022-12-03T09:22:08.478Z,54.60
2022-12-03T09:24:09.924Z,41.13
2022-12-03T09:26:11.338Z,37.70
2022-12-03T09:28:12.787Z,42.60
2022-12-03T09:30:14.628Z,42.78
2022-12-03T09:32:18.513Z,42.38
2022-12-03T09:34:20.438Z,40.45
2022-12-03T09:36:21.910Z,39.97
2022-12-03T09:38:23.353Z,49.65
2022-12-03T09:40:24.861Z,55.50
2022-12-03T09:42:26.476Z,52.03
2022-12-03T09:44:34.077Z,43.60
2022-12-03T09:46:36.327Z,43.55
2022-12-03T09:48:37.981Z,38.15
2022-12-03T09:50:41.701Z,40.97
2022-12-03T09:52:45.215Z,82.32
2022-12-03T09:54:51.989Z,42.58
2022-12-03T09:56:56.021Z,69.93
2022-12-03T09:58:57.708Z,67.03
2022-12-03T10:00:59.438Z,51.97
2022-12-03T10:03:04.410Z,47.38
2022-12-03T10:05:06.176Z,35.25
2022-12-03T10:07:09.418Z,37.28
2022-12-03T10:09:12.720Z,32.85
2022-12-03T10:11:15.403Z,37.75
2022-12-03T10:13:25.925Z,38.22
2022-12-03T10:15:27.802Z,48.35
2022-12-03T10:17:32.012Z,51.95
2022-12-03T10:19:35.984Z,55.13
2022-12-03T10:24:19.086Z,38.08
2022-12-03T10:26:39.155Z,41.03
2022-12-03T10:28:43.607Z,37.67
2022-12-03T10:30:55.655Z,39.70
2022-12-03T10:32:59.088Z,44.53
2022-12-03T10:35:23.240Z,41.17
2022-12-03T10:37:24.766Z,39.47
2022-12-03T10:39:26.375Z,39.20
2022-12-03T10:41:28.993Z,39.30
2022-12-03T10:43:30.490Z,36.78
2022-12-03T10:45:31.905Z,42.75
2022-12-03T10:47:33.491Z,36.20
2022-12-03T10:49:35.436Z,38.80
2022-12-03T10:51:39.113Z,43.25
2022-12-03T10:53:41.420Z,140.13
2022-12-03T10:55:47.242Z,154.75
2022-12-03T10:57:48.749Z,52.03
2022-12-03T10:59:50.595Z,56.63
2022-12-03T11:01:52.742Z,62.92
2022-12-03T11:04:01.102Z,108.47
2022-12-03T11:06:03.152Z,47.63
2022-12-03T11:08:04.865Z,55.50
2022-12-03T11:10:14.511Z,47.30
2022-12-03T11:14:59.267Z,115.68
2022-12-03T11:17:01.571Z,100.15
2022-12-03T11:19:04.132Z,58.67
2022-12-03T11:21:19.050Z,67.07
2022-12-03T11:23:46.549Z,80.95
2022-12-03T11:25:50.713Z,50.10
2022-12-03T11:28:14.254Z,60.55
2022-12-03T11:30:51.408Z,96.93
2022-12-03T11:33:01.230Z,41.40
2022-12-03T11:37:10.386Z,47.45
2022-12-03T11:39:12.001Z,39.80
2022-12-03T11:41:19.311Z,43.38
2022-12-03T11:43:56.660Z,40.63
2022-12-03T11:46:10.560Z,37.67
2022-12-03T11:48:16.141Z,36.28
2022-12-03T11:50:40.903Z,37.30
2022-12-03T11:53:21.310Z,43.22
2022-12-03T11:55:34.689Z,36.70
2022-12-03T11:58:02.494Z,39.15
2022-12-03T12:00:19.641Z,41.65
2022-12-03T12:02:21.319Z,33.17
2022-12-03T12:06:54.682Z,37.30
2022-12-03T12:08:59.151Z,34.22
2022-12-03T12:11:01.633Z,34.90
2022-12-03T12:13:03.503Z,41.05
2022-12-03T12:15:56.034Z,59.20
2022-12-03T12:17:57.755Z,138.60
2022-12-03T12:23:22.648Z,118.88
2022-12-03T12:25:30.271Z,41.95
2022-12-03T12:27:40.182Z,57.88
2022-12-03T12:30:04.568Z,72.18
2022-12-03T12:32:09.034Z,177.25
2022-12-03T12:36:48.640Z,155.18
2022-12-03T12:38:50.225Z,46.67
2022-12-03T12:40:52.414Z,109.35
2022-12-03T12:42:55.325Z,92.50
2022-12-03T12:45:20.135Z,70.93
2022-12-03T12:47:21.969Z,63.75
2022-12-03T12:49:27.141Z,93.93
2022-12-03T12:53:49.056Z,95.65
2022-12-03T12:55:59.584Z,133.70
2022-12-03T12:58:28.408Z,125.65
2022-12-03T13:00:30.083Z,48.08
2022-12-03T13:02:31.800Z,49.83
2022-12-03T13:07:12.901Z,48.90
2022-12-03T13:09:21.776Z,70.15
2022-12-03T13:11:38.759Z,44.05
2022-12-03T13:14:01.851Z,49.15
2022-12-03T13:16:20.129Z,79.07
2022-12-03T13:18:40.605Z,54.17
2022-12-03T13:21:33.231Z,56.50
2022-12-03T13:23:37.674Z,32.90
2022-12-03T13:28:37.181Z,39.75
2022-12-03T13:30:39.319Z,96.32
2022-12-03T13:32:43.365Z,99.47
2022-12-03T13:34:45.241Z,47.63
2022-12-03T13:36:51.947Z,116.00
2022-12-03T13:38:58.750Z,76.90
2022-12-03T13:41:14.962Z,94.55
2022-12-03T13:43:19.333Z,69.05
2022-12-03T13:45:20.973Z,57.53
2022-12-03T13:50:28.911Z,56.47
2022-12-03T13:52:32.774Z,58.90
2022-12-03T13:54:37.998Z,138.38
2022-12-03T13:56:39.518Z,115.57
2022-12-03T13:58:41.097Z,51.80
2022-12-03T14:00:42.858Z,62.03
2022-12-03T14:02:44.578Z,62.03
2022-12-03T14:04:58.428Z,57.08
2022-12-03T14:07:01.872Z,55.38
2022-12-03T14:09:04.231Z,57.33
2022-12-03T14:11:06.341Z,57.35
2022-12-03T14:13:08.292Z,62.03
2022-12-03T14:15:12.920Z,79.60
2022-12-03T14:17:14.516Z,162.45
2022-12-03T14:19:16.075Z,54.78
2022-12-03T14:21:17.550Z,61.33
2022-12-03T14:23:19.022Z,61.63
2022-12-03T14:25:28.260Z,48.40
2022-12-03T14:29:43.991Z,61.00
2022-12-03T14:31:48.279Z,52.35
2022-12-03T14:33:57.116Z,61.95
2022-12-03T14:35:59.162Z,82.18
2022-12-03T14:38:00.817Z,87.63
2022-12-03T14:40:09.216Z,97.30
2022-12-03T14:42:13.734Z,70.78
2022-12-03T14:44:15.648Z,65.57
2022-12-03T14:46:20.220Z,69.55
2022-12-03T14:48:29.586Z,62.45
2022-12-03T14:50:31.064Z,48.15
2022-12-03T14:52:53.757Z,69.30
2022-12-03T14:54:55.217Z,49.42
2022-12-03T14:57:01.558Z,53.00
2022-12-03T14:59:03.079Z,53.65
2022-12-03T15:01:04.780Z,62.45
2022-12-03T15:03:06.349Z,52.67
2022-12-03T15:05:08.085Z,97.93
2022-12-03T15:07:09.806Z,88.20
2022-12-03T15:09:11.466Z,95.60
2022-12-03T15:11:13.017Z,72.93
2022-12-03T15:13:19.854Z,76.00
2022-12-03T15:15:41.711Z,63.83
2022-12-03T15:17:45.744Z,54.85
2022-12-03T15:19:47.387Z,54.72
2022-12-03T15:21:50.394Z,57.78
2022-12-03T15:23:53.981Z,60.95
2022-12-03T15:25:55.453Z,51.40
2022-12-03T15:27:57.291Z,57.33
2022-12-03T15:30:01.988Z,43.70
2022-12-03T15:34:56.876Z,44.17
2022-12-03T15:36:59.281Z,57.75
2022-12-03T15:39:00.925Z,60.63
2022-12-03T15:41:26.136Z,60.40
2022-12-03T15:43:27.790Z,52.22
2022-12-03T15:45:29.352Z,71.13
2022-12-03T15:47:30.969Z,58.47
2022-12-03T15:49:32.616Z,36.20
2022-12-03T15:53:53.583Z,53.17
2022-12-03T15:58:31.319Z,49.05
2022-12-03T16:00:32.936Z,37.72
2022-12-03T16:02:52.224Z,60.95
2022-12-03T16:04:57.822Z,35.67
2022-12-03T16:06:59.294Z,46.97
2022-12-03T16:09:00.736Z,44.00
2022-12-03T16:11:02.246Z,50.58
2022-12-03T16:13:05.886Z,42.30
2022-12-03T16:15:07.749Z,57.33
2022-12-03T16:17:17.054Z,71.38
2022-12-03T16:19:26.890Z,58.42
2022-12-03T16:21:28.967Z,132.93
2022-12-03T16:23:35.160Z,83.57
2022-12-03T16:26:03.107Z,102.93
2022-12-03T16:30:48.895Z,97.53
2022-12-03T16:32:52.387Z,78.07
2022-12-03T16:35:06.610Z,62.75
2022-12-03T16:37:08.322Z,70.57
2022-12-03T16:41:55.513Z,79.05
2022-12-03T16:44:07.186Z,52.78
2022-12-03T16:46:14.531Z,69.82
2022-12-03T16:48:28.934Z,61.55
2022-12-03T16:50:30.685Z,61.85
2022-12-03T16:52:36.778Z,100.43
2022-12-03T16:54:41.377Z,97.45
2022-12-03T16:56:43.023Z,112.13
2022-12-03T16:58:44.727Z,75.15
2022-12-03T17:00:46.341Z,65.60
2022-12-03T17:02:48.379Z,166.18
2022-12-03T17:04:49.973Z,99.20
2022-12-03T17:06:51.639Z,88.30
2022-12-03T17:08:53.166Z,82.63
2022-12-03T17:10:54.760Z,71.82
2022-12-03T17:13:11.722Z,75.20
2022-12-03T17:15:13.420Z,81.85
2022-12-03T17:17:15.099Z,92.00
2022-12-03T17:19:17.189Z,100.40
2022-12-03T17:21:18.693Z,94.25
2022-12-03T17:23:20.252Z,88.20
2022-12-03T17:25:21.933Z,91.50
2022-12-03T17:27:24.918Z,92.68
2022-12-03T17:29:26.509Z,64.80
2022-12-03T17:31:28.366Z,57.70
2022-12-03T17:33:29.987Z,67.10
2022-12-03T17:35:31.485Z,66.50
2022-12-03T17:37:32.933Z,63.10
2022-12-03T17:39:34.627Z,73.13
2022-12-03T17:41:36.134Z,72.05
2022-12-03T17:43:37.609Z,75.10
2022-12-03T17:45:39.030Z,52.05
2022-12-03T17:47:40.498Z,51.33
2022-12-03T17:49:41.955Z,67.30
2022-12-03T17:51:43.536Z,74.60
2022-12-03T17:53:45.058Z,63.70
2022-12-03T17:55:46.999Z,68.07
2022-12-03T17:57:48.459Z,59.65
2022-12-03T17:59:50.018Z,69.45
2022-12-03T18:01:51.596Z,60.97
2022-12-03T18:03:53.204Z,51.10
2022-12-03T18:05:55.291Z,77.82
2022-12-03T18:07:56.875Z,142.27
2022-12-03T18:09:58.430Z,196.75
2022-12-03T18:11:59.880Z,157.02
2022-12-03T18:14:01.478Z,95.18
2022-12-03T18:16:03.001Z,100.30
2022-12-03T18:18:04.684Z,83.65
2022-12-03T18:20:06.788Z,95.70
2022-12-03T18:22:08.442Z,99.63
2022-12-03T18:24:10.217Z,93.95
2022-12-03T18:26:11.931Z,107.18
2022-12-03T18:28:13.419Z,112.55
2022-12-03T18:30:15.185Z,100.63
2022-12-03T18:32:28.313Z,125.50
2022-12-03T18:34:30.554Z,97.32
2022-12-03T18:36:35.981Z,88.30
2022-12-03T18:38:37.487Z,107.05
2022-12-03T18:40:39.064Z,98.65
2022-12-03T18:42:40.559Z,112.45
2022-12-03T18:44:47.868Z,135.27
2022-12-03T18:46:53.814Z,100.82
2022-12-03T18:48:55.835Z,96.65
2022-12-03T18:50:57.455Z,111.38
2022-12-03T18:52:58.924Z,136.70
2022-12-03T18:55:00.422Z,95.68
2022-12-03T18:57:01.903Z,76.25
2022-12-03T18:59:03.536Z,95.82
2022-12-03T19:01:06.609Z,75.38
2022-12-03T19:03:08.215Z,123.90
2022-12-03T19:05:10.252Z,91.10
2022-12-03T19:07:13.058Z,76.43
2022-12-03T19:09:14.639Z,81.00
2022-12-03T19:11:16.261Z,114.55
2022-12-03T19:13:17.790Z,129.65
2022-12-03T19:15:19.458Z,90.68
2022-12-03T19:17:21.701Z,66.57
2022-12-03T19:19:27.228Z,82.43
2022-12-03T19:21:33.556Z,62.92
2022-12-03T19:23:36.840Z,82.20
2022-12-03T19:25:38.627Z,84.20
2022-12-03T19:27:40.143Z,98.65
2022-12-03T19:29:41.678Z,76.22
2022-12-03T19:31:43.237Z,99.72
2022-12-03T19:33:45.555Z,85.28
2022-12-03T19:35:47.036Z,92.47
2022-12-03T19:37:49.577Z,79.40
2022-12-03T19:39:54.535Z,76.50
2022-12-03T19:41:56.275Z,87.68
2022-12-03T19:43:58.197Z,76.82
2022-12-03T19:46:08.622Z,90.47
2022-12-03T19:48:10.235Z,97.55
2022-12-03T19:50:12.035Z,87.68
2022-12-03T19:52:13.530Z,74.45
2022-12-03T19:54:15.593Z,72.00
2022-12-03T19:56:19.042Z,78.75
2022-12-03T19:58:21.063Z,94.95
2022-12-03T20:00:22.564Z,82.60
2022-12-03T20:02:24.155Z,92.18
2022-12-03T20:04:25.770Z,107.93
2022-12-03T20:06:31.294Z,108.07
2022-12-03T20:08:32.942Z,166.30
2022-12-03T20:10:35.303Z,91.97
2022-12-03T20:12:37.030Z,93.18
2022-12-03T20:14:38.543Z,92.00
2022-12-03T20:16:40.596Z,98.35
2022-12-03T20:18:43.977Z,87.68
2022-12-03T20:20:45.498Z,78.53
2022-12-03T20:22:46.995Z,92.13
2022-12-03T20:24:48.446Z,98.90
2022-12-03T20:26:49.930Z,94.00
2022-12-03T20:28:54.000Z,84.10
2022-12-03T20:31:11.792Z,85.70
2022-12-03T20:33:13.715Z,81.63
2022-12-03T20:35:15.242Z,72.45
2022-12-03T20:37:17.612Z,72.20
2022-12-03T20:39:19.098Z,74.00
2022-12-03T20:41:20.971Z,76.45
2022-12-03T20:43:22.488Z,75.07
2022-12-03T20:45:24.050Z,85.43
2022-12-03T20:47:25.527Z,73.22
2022-12-03T20:49:27.030Z,78.15
2022-12-03T20:51:30.374Z,56.03
2022-12-03T20:53:32.099Z,66.55
2022-12-03T20:55:33.925Z,70.85
2022-12-03T20:57:35.410Z,55.08
2022-12-03T20:59:37.001Z,60.22
2022-12-03T21:01:39.030Z,58.95
2022-12-03T21:03:40.661Z,79.65
2022-12-03T21:05:43.928Z,129.32
2022-12-03T21:07:47.850Z,77.45
2022-12-03T21:09:49.448Z,66.55
2022-12-03T21:11:51.141Z,65.80
2022-12-03T21:13:53.973Z,72.97
2022-12-03T21:16:04.099Z,65.70
2022-12-03T21:18:05.728Z,73.32
2022-12-03T21:20:07.632Z,66.68
2022-12-03T21:22:09.072Z,63.83
2022-12-03T21:24:11.803Z,65.57
2022-12-03T21:26:16.054Z,64.03
2022-12-03T21:28:17.517Z,57.58
2022-12-03T21:30:19.067Z,49.92
2022-12-03T21:32:20.558Z,52.83
2022-12-03T21:34:21.990Z,58.10
2022-12-03T21:36:24.727Z,52.78
2022-12-03T21:38:27.603Z,58.92
2022-12-03T21:40:29.175Z,62.83
2022-12-03T21:42:36.013Z,62.20
2022-12-03T21:44:38.501Z,54.33
2022-12-03T21:47:12.407Z,48.60
2022-12-03T21:49:01.777Z,52.55
2022-12-03T21:51:07.185Z,38.63
2022-12-03T21:53:08.917Z,40.55
2022-12-03T21:55:10.709Z,43.80
2022-12-03T21:57:12.150Z,48.90
2022-12-03T21:59:13.640Z,50.08
2022-12-03T22:01:21.145Z,58.50
2022-12-03T22:03:22.695Z,54.03
2022-12-03T22:05:24.306Z,50.25
2022-12-03T22:07:25.834Z,47.33
2022-12-03T22:09:27.419Z,55.75
2022-12-03T22:11:28.884Z,42.22
2022-12-03T22:13:30.595Z,56.55
2022-12-03T22:15:32.191Z,55.08
2022-12-03T22:17:35.343Z,50.22
2022-12-03T22:19:36.915Z,43.42
2022-12-03T22:21:38.353Z,46.05
2022-12-03T22:23:40.574Z,44.00
2022-12-03T22:25:42.164Z,55.80
2022-12-03T22:27:43.668Z,52.13
2022-12-03T22:29:45.156Z,44.85
2022-12-03T22:31:46.769Z,51.08
2022-12-03T22:33:49.646Z,36.92
2022-12-03T22:36:02.348Z,47.72
2022-12-03T22:38:03.835Z,44.20
2022-12-03T22:40:06.034Z,42.53
2022-12-03T22:42:07.496Z,44.83
2022-12-03T22:44:09.358Z,46.15
2022-12-03T22:46:12.717Z,48.85
2022-12-03T22:48:14.694Z,45.33
2022-12-03T22:50:16.289Z,36.03
2022-12-03T22:52:17.830Z,40.47
2022-12-03T22:54:23.787Z,42.83
2022-12-03T22:56:26.954Z,39.50
2022-12-03T22:58:28.682Z,42.65
2022-12-03T23:00:39.240Z,33.78
2022-12-03T23:02:40.775Z,32.65
2022-12-03T23:04:42.244Z,35.50
2022-12-03T23:06:43.783Z,45.80
2022-12-03T23:08:45.707Z,52.50
2022-12-03T23:10:51.090Z,47.25
2022-12-03T23:12:52.525Z,42.30
2022-12-03T23:14:55.208Z,35.22
2022-12-03T23:16:56.760Z,40.40
2022-12-03T23:18:59.973Z,42.08
2022-12-03T23:21:01.586Z,37.92
2022-12-03T23:23:03.051Z,42.30
2022-12-03T23:25:07.320Z,33.80
2022-12-03T23:27:08.940Z,46.90
2022-12-03T23:29:10.348Z,51.67
2022-12-03T23:31:29.991Z,68.28
2022-12-03T23:33:38.023Z,36.83
2022-12-03T23:35:39.948Z,41.75
2022-12-03T23:37:42.987Z,26.52
2022-12-03T23:39:44.555Z,28.55
2022-12-03T23:41:46.065Z,39.30
2022-12-03T23:43:48.114Z,40.00
2022-12-03T23:45:49.584Z,36.97
2022-12-03T23:47:55.087Z,44.72
2022-12-03T23:49:59.590Z,36.92
2022-12-03T23:52:01.087Z,43.20
2022-12-03T23:54:02.621Z,37.90
2022-12-03T23:56:15.375Z,39.53
2022-12-03T23:58:16.802Z,38.00
